Time;durP1;ratioP1;P1;durP2;ratioP2;P2;SDS_P1;SDS_P2;PMS_P1;PMS_P2;Temp;Humidity;BMP_temperature;BMP_pressure;BME280_temperature;BME280_humidity;BME280_pressure;Samples;Min_cycle;Max_cycle;Signal;HPM_P1;HPM_P2
2024/02/28 00:00:28;;;;;;;5.00;3.23;;;;;;;1.83;78.47;101809.09;5055673;28;20441;-79
2024/02/28 00:02:55;;;;;;;5.30;3.80;;;;;;;1.82;78.81;101813.38;5055712;28;20444;-79
2024/02/28 00:05:22;;;;;;;4.70;3.67;;;;;;;1.82;78.32;101813.38;5055773;28;20457;-79
2024/02/28 00:07:48;;;;;;;5.80;3.80;;;;;;;1.82;78.67;101807.34;5055575;28;20443;-79
2024/02/28 00:10:15;;;;;;;6.40;3.80;;;;;;;1.81;78.64;101797.84;5055546;28;20462;-80
2024/02/28 00:12:44;;;;;;;5.20;3.60;;;;;;;1.81;78.83;101806.47;5055662;28;20434;-79
2024/02/28 00:15:11;;;;;;;4.87;3.47;;;;;;;1.82;78.74;101802.19;5055265;28;20842;-79
2024/02/28 00:17:40;;;;;;;4.50;3.20;;;;;;;1.81;78.75;101801.28;5055339;28;20500;-79
2024/02/28 00:20:08;;;;;;;5.37;3.40;;;;;;;1.80;78.59;101799.56;5055225;28;20507;-71
2024/02/28 00:22:36;;;;;;;5.17;3.47;;;;;;;1.80;78.87;101798.69;5055026;28;20442;-71
2024/02/28 00:25:05;;;;;;;5.57;3.67;;;;;;;1.79;78.84;101800.41;5055079;28;20444;-71
2024/02/28 00:27:32;;;;;;;4.93;3.37;;;;;;;1.80;78.62;101802.13;5054839;28;20448;-71
2024/02/28 00:30:00;;;;;;;5.33;3.57;;;;;;;1.80;78.86;101794.41;5054845;28;20927;-71
2024/02/28 00:32:27;;;;;;;5.17;3.60;;;;;;;1.79;78.57;101791.75;5054746;28;20936;-71
2024/02/28 00:34:54;;;;;;;4.93;3.53;;;;;;;1.78;78.29;101787.44;5054736;28;20826;-71
2024/02/28 00:37:21;;;;;;;4.00;3.40;;;;;;;1.78;78.48;101788.31;5054744;28;20945;-72
2024/02/28 00:39:48;;;;;;;4.63;3.53;;;;;;;1.79;78.30;101791.75;5054624;28;20500;-71
2024/02/28 00:42:15;;;;;;;6.07;3.83;;;;;;;1.78;78.51;101790.88;5054821;28;20795;-71
2024/02/28 00:44:42;;;;;;;4.83;3.63;;;;;;;1.78;78.71;101788.31;5054638;28;20504;-71
2024/02/28 00:47:10;;;;;;;5.03;3.40;;;;;;;1.77;78.65;101799.47;5054715;28;20430;-71
2024/02/28 00:49:38;;;;;;;4.53;3.80;;;;;;;1.76;78.52;101792.56;5054498;28;20434;-71
2024/02/28 00:52:05;;;;;;;4.03;3.33;;;;;;;1.75;78.64;101795.97;5054469;28;21198;-71
2024/02/28 00:54:32;;;;;;;4.83;3.43;;;;;;;1.74;78.23;101788.19;5054561;28;20494;-71
2024/02/28 00:56:59;;;;;;;4.40;3.27;;;;;;;1.75;78.56;101801.13;5054589;28;20436;-71
2024/02/28 00:59:26;;;;;;;5.37;3.47;;;;;;;1.75;78.25;101795.09;5054666;28;20480;-71
2024/02/28 01:01:53;;;;;;;4.07;3.10;;;;;;;1.73;78.27;101795.03;5054230;28;20997;-71
2024/02/28 01:04:21;;;;;;;4.13;2.90;;;;;;;1.73;78.61;101787.28;5054361;28;20993;-72
2024/02/28 01:06:48;;;;;;;4.70;3.40;;;;;;;1.73;78.22;101789.88;5054238;28;20441;-71
2024/02/28 01:09:15;;;;;;;3.70;3.07;;;;;;;1.70;78.36;101782.03;5054334;28;20945;-71
2024/02/28 01:11:42;;;;;;;5.27;3.83;;;;;;;1.72;78.22;101789.84;5046735;28;20448;-72
2024/02/28 01:14:09;;;;;;;4.20;3.43;;;;;;;1.72;78.23;101780.38;5033993;28;20493;-71
2024/02/28 01:16:36;;;;;;;4.53;3.40;;;;;;;1.68;78.49;101779.44;5034362;28;20446;-70
2024/02/28 01:19:03;;;;;;;3.57;3.27;;;;;;;1.71;78.32;101786.38;5049064;28;20536;-71
2024/02/28 01:21:31;;;;;;;4.40;3.30;;;;;;;1.72;78.14;101782.09;5054136;28;20441;-71
2024/02/28 01:23:58;;;;;;;4.93;3.93;;;;;;;1.70;78.21;101776.88;5053727;28;20810;-70
2024/02/28 01:26:24;;;;;;;4.00;3.17;;;;;;;1.70;78.18;101777.78;5053799;28;20794;-71
2024/02/28 01:28:51;;;;;;;3.97;3.20;;;;;;;1.71;78.34;101773.50;5053795;28;20816;-71
2024/02/28 01:31:18;;;;;;;4.83;3.50;;;;;;;1.69;78.28;101772.56;5053932;28;20447;-79
2024/02/28 01:33:45;;;;;;;5.13;3.03;;;;;;;1.70;78.16;101766.56;5054215;28;20456;-79
2024/02/28 01:36:12;;;;;;;4.70;3.30;;;;;;;1.69;78.28;101770.84;5054131;28;20484;-80
2024/02/28 01:38:40;;;;;;;5.90;3.43;;;;;;;1.69;78.39;101768.28;5053868;28;20448;-78
2024/02/28 01:41:08;;;;;;;3.87;2.80;;;;;;;1.67;78.42;101772.50;5053851;28;20442;-79
2024/02/28 01:43:35;;;;;;;4.17;3.00;;;;;;;1.66;78.54;101765.59;5053677;28;20431;-79
2024/02/28 01:46:04;;;;;;;3.90;2.73;;;;;;;1.63;78.21;101769.81;5053746;28;20442;-79
2024/02/28 01:48:32;;;;;;;3.80;2.90;;;;;;;1.66;78.23;101775.06;5053797;28;20438;-79
2024/02/28 01:50:59;;;;;;;4.27;3.30;;;;;;;1.64;78.10;101777.56;5053275;28;20520;-79
2024/02/28 01:53:26;;;;;;;4.27;2.97;;;;;;;1.64;78.40;101771.53;5053359;28;20496;-79
2024/02/28 01:55:56;;;;;;;4.57;2.97;;;;;;;1.62;78.54;101768.94;5053426;28;20491;-78
2024/02/28 01:58:24;;;;;;;3.73;2.73;;;;;;;1.62;78.10;101766.34;5053543;28;20446;-80
2024/02/28 02:00:52;;;;;;;5.07;3.13;;;;;;;1.59;78.18;101768.84;5053329;28;20441;-80
2024/02/28 02:03:20;;;;;;;3.67;2.90;;;;;;;1.59;78.41;101767.94;5053473;28;20472;-79
2024/02/28 02:05:46;;;;;;;4.17;3.10;;;;;;;1.57;78.25;101764.47;5053543;28;20454;-79
2024/02/28 02:08:14;;;;;;;4.57;2.93;;;;;;;1.55;77.99;101760.97;5053447;28;20826;-78
2024/02/28 02:10:41;;;;;;;3.33;2.73;;;;;;;1.55;78.44;101755.78;5053623;28;20448;-80
2024/02/28 02:13:09;;;;;;;3.33;2.77;;;;;;;1.54;78.49;101749.78;5053539;28;20439;-79
2024/02/28 02:15:36;;;;;;;3.70;2.83;;;;;;;1.54;77.94;101747.19;5052969;28;21020;-79
2024/02/28 02:18:03;;;;;;;4.53;3.03;;;;;;;1.55;78.45;101751.50;5053370;28;20819;-79
2024/02/28 02:20:33;;;;;;;3.50;2.90;;;;;;;1.55;78.22;101755.78;5053168;28;20438;-75
2024/02/28 02:23:01;;;;;;;3.43;2.80;;;;;;;1.54;77.99;101744.63;5053108;28;20438;-75
2024/02/28 02:25:28;;;;;;;4.30;2.97;;;;;;;1.54;78.27;101739.44;5052956;28;20460;-75
2024/02/28 02:27:55;;;;;;;3.37;2.70;;;;;;;1.54;78.13;101743.75;5052690;28;20469;-74
2024/02/28 02:30:22;;;;;;;3.53;2.77;;;;;;;1.54;78.32;101743.75;5052970;28;20453;-76
2024/02/28 02:32:49;;;;;;;2.97;2.67;;;;;;;1.53;78.19;101748.00;5052699;28;20521;-75
2024/02/28 02:35:16;;;;;;;3.80;2.47;;;;;;;1.53;78.41;101742.84;5052498;28;20480;-75
2024/02/28 02:37:45;;;;;;;2.87;2.37;;;;;;;1.53;77.94;101745.41;5052760;28;20863;-75
2024/02/28 02:40:15;;;;;;;4.87;2.50;;;;;;;1.54;78.13;101733.44;5052902;28;20492;-79
2024/02/28 02:42:42;;;;;;;4.40;2.70;;;;;;;1.53;78.11;101737.69;5052797;28;20434;-78
2024/02/28 02:45:10;;;;;;;3.50;2.73;;;;;;;1.54;78.17;101741.16;5052702;28;20601;-79
2024/02/28 02:47:37;;;;;;;4.20;2.93;;;;;;;1.53;78.09;101744.56;5053133;28;20809;-79
2024/02/28 02:50:04;;;;;;;2.97;2.27;;;;;;;1.52;78.18;101743.69;5052831;28;20473;-79
2024/02/28 02:52:31;;;;;;;4.03;2.63;;;;;;;1.53;78.03;101734.22;5052650;28;20444;-79
2024/02/28 02:54:58;;;;;;;2.70;2.10;;;;;;;1.52;78.18;101741.09;5052653;28;21009;-79
2024/02/28 02:57:26;;;;;;;2.67;2.27;;;;;;;1.52;78.27;101742.81;5052740;28;20442;-79
2024/02/28 02:59:53;;;;;;;2.43;2.23;;;;;;;1.51;78.11;101735.91;5052731;28;20447;-79
2024/02/28 03:02:20;;;;;;;3.57;2.30;;;;;;;1.51;77.90;101743.66;5053221;28;20436;-79
2024/02/28 03:04:47;;;;;;;2.80;1.90;;;;;;;1.51;78.05;101739.38;5056820;28;20440;-79
2024/02/28 03:07:14;;;;;;;2.90;2.20;;;;;;;1.50;77.75;101736.72;5056758;28;20451;-79
2024/02/28 03:09:41;;;;;;;3.27;2.10;;;;;;;1.50;78.08;101736.72;5056604;28;20442;-79
2024/02/28 03:12:08;;;;;;;2.60;2.10;;;;;;;1.48;78.06;101731.53;5056558;28;20434;-79
2024/02/28 03:14:37;;;;;;;2.90;2.40;;;;;;;1.46;78.34;101734.06;5056669;28;20444;-79
2024/02/28 03:17:04;;;;;;;2.77;2.23;;;;;;;1.46;77.90;101731.47;5053928;28;20444;-79
2024/02/28 03:19:31;;;;;;;2.30;1.93;;;;;;;1.46;78.33;101735.75;5036543;28;20951;-80
2024/02/28 03:21:58;;;;;;;2.87;2.50;;;;;;;1.45;77.84;101729.75;5036423;28;20444;-78
2024/02/28 03:24:25;;;;;;;2.20;1.93;;;;;;;1.40;78.37;101720.13;5036511;28;20457;-79
2024/02/28 03:26:51;;;;;;;2.83;2.27;;;;;;;1.40;78.13;101718.41;5036697;28;20430;-79
2024/02/28 03:29:18;;;;;;;2.23;1.90;;;;;;;1.43;77.88;101720.19;5036758;28;20439;-79
2024/02/28 03:31:47;;;;;;;2.50;2.10;;;;;;;1.43;78.17;101726.22;5036208;28;20773;-71
2024/02/28 03:34:13;;;;;;;2.63;1.90;;;;;;;1.42;77.95;101719.34;5036077;28;20435;-71
2024/02/28 03:36:40;;;;;;;3.27;2.77;;;;;;;1.42;78.22;101724.50;5035910;28;20492;-71
2024/02/28 03:39:07;;;;;;;2.40;2.07;;;;;;;1.40;77.88;101720.97;5036043;28;20455;-71
2024/02/28 03:41:34;;;;;;;3.83;2.20;;;;;;;1.41;78.09;101722.72;5035897;28;20445;-71
2024/02/28 03:44:01;;;;;;;2.90;2.57;;;;;;;1.40;77.87;101720.97;5036055;28;20445;-71
2024/02/28 03:46:28;;;;;;;2.37;2.00;;;;;;;1.42;78.06;101731.31;5035807;28;20439;-71
2024/02/28 03:48:56;;;;;;;3.17;2.27;;;;;;;1.40;77.96;101720.97;5035780;28;20795;-72
2024/02/28 03:51:23;;;;;;;2.43;2.00;;;;;;;1.40;77.79;101723.56;5035827;28;20442;-68
2024/02/28 03:53:50;;;;;;;2.10;1.80;;;;;;;1.39;78.36;101714.09;5035606;28;20467;-67
2024/02/28 03:56:23;;;;;;;2.37;1.93;;;;;;;1.39;78.03;101716.66;5034527;28;20490;-68
2024/02/28 03:58:50;;;;;;;2.10;1.90;;;;;;;1.38;77.72;101712.31;5034381;28;20929;-69
2024/02/28 04:01:17;;;;;;;1.73;1.63;;;;;;;1.36;77.92;101724.31;5034447;28;20505;-68
2024/02/28 04:03:44;;;;;;;2.20;2.00;;;;;;;1.36;78.11;101719.16;5034311;28;20446;-68
2024/02/28 04:06:12;;;;;;;3.57;2.10;;;;;;;1.36;78.29;101729.47;5034337;28;20453;-68
2024/02/28 04:08:41;;;;;;;3.23;2.30;;;;;;;1.36;78.01;101724.31;5034127;28;20450;-68
2024/02/28 04:11:08;;;;;;;2.40;2.00;;;;;;;1.35;77.80;101712.22;5034257;28;20427;-69
2024/02/28 04:13:35;;;;;;;2.20;2.00;;;;;;;1.35;78.06;101709.66;5033855;28;20558;-68
2024/02/28 04:16:03;;;;;;;2.67;2.10;;;;;;;1.35;78.13;101712.22;5034024;28;20486;-68
2024/02/28 04:18:30;;;;;;;2.70;2.30;;;;;;;1.35;78.04;101717.38;5034021;28;20447;-69
2024/02/28 04:20:57;;;;;;;2.83;2.07;;;;;;;1.34;77.75;101713.06;5034163;28;20785;-68
2024/02/28 04:23:25;;;;;;;2.00;1.80;;;;;;;1.35;77.76;101708.78;5034138;28;20850;-68
2024/02/28 04:25:52;;;;;;;2.30;2.10;;;;;;;1.34;77.71;101715.66;5034032;28;21022;-68
2024/02/28 04:28:19;;;;;;;2.67;2.00;;;;;;;1.33;77.81;101707.84;5033966;28;20431;-69
2024/02/28 04:30:46;;;;;;;2.13;1.93;;;;;;;1.34;78.03;101713.06;5034010;28;20534;-68
2024/02/28 04:33:13;;;;;;;2.20;2.00;;;;;;;1.34;77.93;101707.91;5033857;28;20438;-68
2024/02/28 04:35:40;;;;;;;2.30;1.87;;;;;;;1.34;78.15;101707.91;5033760;28;20480;-69
2024/02/28 04:38:07;;;;;;;2.20;1.90;;;;;;;1.33;77.81;101708.72;5033698;28;20439;-68
2024/02/28 04:40:35;;;;;;;2.33;2.13;;;;;;;1.30;78.24;101698.31;5033827;28;20438;-71
2024/02/28 04:43:02;;;;;;;2.50;1.67;;;;;;;1.33;77.91;101700.13;5033754;28;20466;-70
2024/02/28 04:45:29;;;;;;;1.70;1.60;;;;;;;1.31;77.88;101700.09;5033790;28;20435;-71
2024/02/28 04:47:57;;;;;;;2.10;1.80;;;;;;;1.30;77.82;101700.91;5033724;28;20442;-71
2024/02/28 04:50:24;;;;;;;2.00;1.80;;;;;;;1.31;78.16;101705.25;5033503;28;20443;-71
2024/02/28 04:52:51;;;;;;;2.47;2.03;;;;;;;1.30;78.11;101703.47;5033556;28;20808;-71
2024/02/28 04:55:18;;;;;;;1.90;1.70;;;;;;;1.29;78.06;101701.72;4946948;28;2494631;-72
2024/02/28 04:57:46;;;;;;;2.70;2.13;;;;;;;1.29;77.89;101700.88;5034634;28;20200;-71
2024/02/28 05:00:13;;;;;;;2.47;2.10;;;;;;;1.28;77.96;101706.84;5034588;28;20807;-71
2024/02/28 05:02:40;;;;;;;2.30;2.07;;;;;;;1.26;77.79;101696.50;5034439;28;20510;-71
2024/02/28 05:05:07;;;;;;;2.83;2.00;;;;;;;1.27;77.84;101693.06;5034390;28;20442;-72
2024/02/28 05:07:34;;;;;;;2.20;2.00;;;;;;;1.27;77.82;101693.06;5034203;28;20441;-71
2024/02/28 05:10:01;;;;;;;2.13;1.80;;;;;;;1.27;77.86;101687.91;5034253;28;20432;-71
2024/02/28 05:12:28;;;;;;;2.53;2.10;;;;;;;1.27;78.09;101687.91;5034125;28;20445;-71
2024/02/28 05:14:56;;;;;;;2.10;1.87;;;;;;;1.26;77.46;101681.03;5034187;28;20436;-71
2024/02/28 05:17:23;;;;;;;3.13;2.00;;;;;;;1.25;78.20;101684.44;5034191;28;20484;-71
2024/02/28 05:19:50;;;;;;;2.93;2.20;;;;;;;1.27;77.82;101685.34;5034268;28;20469;-71
2024/02/28 05:22:17;;;;;;;2.17;1.97;;;;;;;1.25;78.15;101679.28;5034048;28;20448;-71
2024/02/28 05:24:47;;;;;;;2.70;2.13;;;;;;;1.26;78.03;101691.34;5033563;28;20431;-71
2024/02/28 05:27:13;;;;;;;3.00;1.97;;;;;;;1.27;77.80;101693.06;5033751;28;20962;-71
2024/02/28 05:29:42;;;;;;;2.63;1.77;;;;;;;1.27;77.92;101692.19;5033785;28;20792;-71
2024/02/28 05:32:11;;;;;;;2.03;1.63;;;;;;;1.23;77.89;101680.94;5033983;28;20443;-71
2024/02/28 05:34:38;;;;;;;2.57;1.83;;;;;;;1.27;78.12;101692.19;5033701;28;20467;-71
2024/02/28 05:37:05;;;;;;;2.83;1.90;;;;;;;1.27;78.33;101689.63;5033893;28;20882;-71
2024/02/28 05:39:32;;;;;;;2.27;1.80;;;;;;;1.26;77.90;101686.19;5033707;28;20455;-71
2024/02/28 05:41:59;;;;;;;2.57;2.00;;;;;;;1.25;78.15;101689.59;5033724;28;20441;-71
2024/02/28 05:44:25;;;;;;;2.57;1.87;;;;;;;1.27;78.33;101695.66;5033672;28;20484;-71
2024/02/28 05:46:52;;;;;;;1.77;1.67;;;;;;;1.26;77.78;101686.19;5033492;28;20959;-71
2024/02/28 05:49:22;;;;;;;2.77;1.90;;;;;;;1.26;77.88;101691.34;5033555;28;20807;-71
2024/02/28 05:51:49;;;;;;;2.10;1.90;;;;;;;1.27;77.77;101681.88;5033496;28;20451;-71
2024/02/28 05:54:16;;;;;;;2.00;1.80;;;;;;;1.26;77.81;101681.03;5033394;28;20958;-71
2024/02/28 05:56:43;;;;;;;2.70;2.30;;;;;;;1.23;77.79;101680.94;4994000;28;20485;-71
2024/02/28 05:59:09;;;;;;;2.60;2.20;;;;;;;1.24;78.12;101680.09;4994009;28;20435;-71
2024/02/28 06:01:37;;;;;;;2.10;1.90;;;;;;;1.24;77.71;101682.66;4993934;28;20445;-71
2024/02/28 06:04:04;;;;;;;2.20;1.90;;;;;;;1.24;78.16;101677.50;4993952;28;20527;-71
2024/02/28 06:06:32;;;;;;;2.57;2.10;;;;;;;1.24;77.92;101680.09;4993796;28;20952;-71
2024/02/28 06:08:59;;;;;;;2.63;2.10;;;;;;;1.24;77.77;101682.66;4993690;28;20444;-71
2024/02/28 06:11:26;;;;;;;3.47;2.13;;;;;;;1.24;77.83;101678.38;4993963;28;20445;-68
2024/02/28 06:13:53;;;;;;;2.23;1.93;;;;;;;1.24;77.87;101678.38;4994026;28;20451;-68
2024/02/28 06:16:20;;;;;;;2.50;2.00;;;;;;;1.24;78.24;101677.50;4993536;28;20487;-69
2024/02/28 06:18:47;;;;;;;2.90;2.30;;;;;;;1.23;77.99;101681.81;4993845;28;20433;-68
2024/02/28 06:21:14;;;;;;;2.10;1.90;;;;;;;1.25;78.06;101685.31;4993682;28;20525;-68
2024/02/28 06:23:43;;;;;;;2.80;2.33;;;;;;;1.26;78.35;101681.03;4993582;28;20437;-68
2024/02/28 06:26:16;;;;;;;3.03;2.30;;;;;;;1.25;78.31;101677.56;4993580;28;20455;-68
2024/02/28 06:28:45;;;;;;;3.47;2.10;;;;;;;1.27;78.03;101687.03;4993541;28;20796;-68
2024/02/28 06:31:14;;;;;;;2.87;2.30;;;;;;;1.25;78.00;101682.72;4993494;28;20444;-68
2024/02/28 06:33:41;;;;;;;3.03;2.37;;;;;;;1.25;77.83;101690.47;4993521;28;21074;-68
2024/02/28 06:36:08;;;;;;;3.33;1.93;;;;;;;1.25;78.28;101681.88;4993279;28;20510;-69
2024/02/28 06:38:35;;;;;;;2.40;2.10;;;;;;;1.25;77.94;101687.03;4993427;28;20826;-68
2024/02/28 06:41:05;;;;;;;2.30;1.93;;;;;;;1.26;77.89;101693.91;4993402;28;20958;-68
2024/02/28 06:43:34;;;;;;;2.43;1.93;;;;;;;1.26;78.19;101688.75;4993275;28;20803;-68
2024/02/28 06:46:01;;;;;;;2.83;2.10;;;;;;;1.26;77.91;101683.59;4993325;28;20447;-68
2024/02/28 06:48:28;;;;;;;2.67;1.97;;;;;;;1.25;77.94;101690.47;4993339;28;20524;-68
2024/02/28 06:50:55;;;;;;;2.30;2.10;;;;;;;1.23;77.99;101675.78;4993374;28;20442;-68
2024/02/28 06:53:22;;;;;;;2.40;2.17;;;;;;;1.24;78.16;101687.81;4993379;28;20457;-68
2024/02/28 06:55:49;;;;;;;2.73;2.33;;;;;;;1.24;77.91;101688.69;5017930;28;20463;-68
2024/02/28 06:58:17;;;;;;;2.90;2.40;;;;;;;1.24;78.14;101677.50;5032527;28;20924;-68
2024/02/28 07:00:44;;;;;;;2.47;2.20;;;;;;;1.25;77.92;101675.00;5032588;28;20435;-75
2024/02/28 07:03:11;;;;;;;2.90;2.13;;;;;;;1.26;78.00;101681.03;5032659;28;20467;-75
2024/02/28 07:05:38;;;;;;;2.10;1.90;;;;;;;1.26;77.91;101686.19;5032596;28;20435;-75
2024/02/28 07:08:05;;;;;;;2.73;2.10;;;;;;;1.27;77.91;101689.63;5032566;28;20439;-75
2024/02/28 07:10:32;;;;;;;2.40;2.00;;;;;;;1.25;78.04;101685.31;5032490;28;20435;-75
2024/02/28 07:12:59;;;;;;;3.10;1.83;;;;;;;1.28;77.90;101689.69;5032678;28;20813;-75
2024/02/28 07:15:27;;;;;;;2.50;1.83;;;;;;;1.29;78.00;101691.41;5032456;28;20782;-76
2024/02/28 07:17:54;;;;;;;2.17;1.97;;;;;;;1.30;78.14;101695.75;5032149;28;20483;-75
2024/02/28 07:20:21;;;;;;;3.90;2.23;;;;;;;1.28;78.10;101687.09;5032569;28;20443;-71
2024/02/28 07:22:48;;;;;;;4.60;2.50;;;;;;;1.31;78.17;101689.78;5032424;28;20442;-70
2024/02/28 07:25:15;;;;;;;5.83;2.10;;;;;;;1.32;78.19;101686.34;5032373;28;20446;-70
2024/02/28 07:27:42;;;;;;;3.03;2.13;;;;;;;1.34;78.26;101689.00;5032299;28;20440;-70
2024/02/28 07:30:09;;;;;;;2.33;2.00;;;;;;;1.33;78.25;101676.91;5032285;28;20435;-70
2024/02/28 07:32:37;;;;;;;2.70;2.30;;;;;;;1.34;78.17;101676.97;5032194;28;20439;-70
2024/02/28 07:35:05;;;;;;;2.40;2.10;;;;;;;1.36;78.08;101680.47;5032209;28;20439;-70
2024/02/28 07:37:32;;;;;;;1.80;1.70;;;;;;;1.37;78.09;101678.78;5032308;28;20533;-70
2024/02/28 07:39:59;;;;;;;2.47;2.10;;;;;;;1.36;77.94;101677.91;5032141;28;20798;-70
2024/02/28 07:42:26;;;;;;;2.10;1.87;;;;;;;1.37;77.96;101679.63;5032120;28;20446;-70
2024/02/28 07:44:56;;;;;;;2.30;2.00;;;;;;;1.38;77.90;101678.78;5032213;28;20928;-70
2024/02/28 07:47:24;;;;;;;1.83;1.73;;;;;;;1.39;78.27;101680.56;5032136;28;20951;-70
2024/02/28 07:49:53;;;;;;;2.20;1.83;;;;;;;1.40;78.03;101679.72;5034886;28;20435;-70
2024/02/28 07:52:20;;;;;;;2.00;1.70;;;;;;;1.42;77.83;101682.34;5035704;28;20459;-70
2024/02/28 07:54:47;;;;;;;2.17;1.97;;;;;;;1.42;78.17;101679.75;5035669;28;20833;-70
2024/02/28 07:57:15;;;;;;;2.33;1.70;;;;;;;1.41;78.07;101686.63;5035501;28;21231;-70
2024/02/28 07:59:42;;;;;;;2.00;1.80;;;;;;;1.44;77.99;101686.72;5035635;28;20842;-70
2024/02/28 08:02:11;;;;;;;2.60;1.70;;;;;;;1.44;78.03;101676.41;5035430;28;20447;-70
2024/02/28 08:04:38;;;;;;;2.00;1.70;;;;;;;1.45;78.27;101678.16;5035429;28;20475;-71
2024/02/28 08:07:07;;;;;;;2.97;1.80;;;;;;;1.45;77.92;101672.13;5035559;28;20440;-71
2024/02/28 08:09:34;;;;;;;2.33;1.73;;;;;;;1.46;77.86;101679.91;5035389;28;20436;-71
2024/02/28 08:12:01;;;;;;;2.20;1.83;;;;;;;1.45;77.90;101677.28;5035558;28;20435;-68
2024/02/28 08:14:28;;;;;;;2.73;1.50;;;;;;;1.48;78.02;101673.09;5035463;28;20436;-68
2024/02/28 08:16:55;;;;;;;2.70;2.10;;;;;;;1.48;78.13;101683.41;5035173;28;20489;-68
2024/02/28 08:19:22;;;;;;;3.00;1.90;;;;;;;1.52;78.19;101683.50;5035187;28;20935;-68
2024/02/28 08:21:49;;;;;;;1.83;1.67;;;;;;;1.53;78.11;101680.06;5035185;28;20450;-68
2024/02/28 08:24:17;;;;;;;2.37;1.90;;;;;;;1.54;78.01;101680.13;5035149;28;20443;-68
2024/02/28 08:26:44;;;;;;;1.97;1.77;;;;;;;1.55;77.79;101671.56;5035071;28;20449;-68
2024/02/28 08:29:11;;;;;;;1.70;1.60;;;;;;;1.56;77.86;101682.75;5035196;28;20813;-68
2024/02/28 08:31:42;;;;;;;2.27;1.43;;;;;;;1.57;78.11;101687.97;5035058;28;20803;-68
2024/02/28 08:34:09;;;;;;;2.70;1.67;;;;;;;1.55;78.07;101681.00;5035130;28;20443;-68
2024/02/28 08:36:36;;;;;;;2.33;1.90;;;;;;;1.50;78.08;101673.13;5034861;28;20485;-68
2024/02/28 08:39:04;;;;;;;1.70;1.50;;;;;;;1.58;77.92;101674.22;5034985;28;20427;-68
2024/02/28 08:41:34;;;;;;;2.10;1.70;;;;;;;1.59;77.83;101680.25;5034834;28;20465;-69
2024/02/28 08:44:01;;;;;;;2.43;1.67;;;;;;;1.60;77.76;101679.44;5034970;28;20920;-68
2024/02/28 08:46:28;;;;;;;2.23;1.77;;;;;;;1.62;77.71;101680.38;5034785;28;20427;-68
2024/02/28 08:48:55;;;;;;;2.37;1.87;;;;;;;1.62;78.15;101675.19;5034624;28;20454;-69
2024/02/28 08:51:22;;;;;;;1.97;1.77;;;;;;;1.64;77.86;101676.97;5034557;28;20453;-68
2024/02/28 08:53:49;;;;;;;2.33;1.70;;;;;;;1.64;77.74;101666.66;5034544;28;20865;-68
2024/02/28 08:56:16;;;;;;;2.10;1.90;;;;;;;1.66;77.98;101664.13;5034470;28;20494;-68
2024/02/28 08:58:44;;;;;;;2.30;1.80;;;;;;;1.67;77.85;101669.31;5034553;28;20797;-68
2024/02/28 09:01:15;;;;;;;1.97;1.67;;;;;;;1.67;77.63;101663.28;5033449;28;20427;-68
2024/02/28 09:03:42;;;;;;;2.10;1.80;;;;;;;1.68;77.93;101665.06;5034566;28;20493;-69
2024/02/28 09:06:09;;;;;;;1.60;1.50;;;;;;;1.68;77.75;101668.50;5034458;28;20518;-68
2024/02/28 09:08:35;;;;;;;2.47;1.67;;;;;;;1.70;77.58;101671.09;5034340;28;20506;-68
2024/02/28 09:11:04;;;;;;;1.83;1.67;;;;;;;1.70;77.68;101666.84;5034237;28;20848;-68
2024/02/28 09:13:31;;;;;;;2.30;1.80;;;;;;;1.73;77.46;101663.44;5034330;28;20448;-69
2024/02/28 09:15:59;;;;;;;2.33;1.47;;;;;;;1.73;77.80;101668.59;5033952;28;20455;-69
2024/02/28 09:18:26;;;;;;;1.60;1.30;;;;;;;1.75;77.52;101660.94;5034138;28;20488;-68
2024/02/28 09:20:53;;;;;;;1.57;1.47;;;;;;;1.74;77.70;101660.06;5034232;28;20439;-70
2024/02/28 09:23:20;;;;;;;1.93;1.70;;;;;;;1.75;77.57;101664.38;5034136;28;20793;-70
2024/02/28 09:25:47;;;;;;;1.57;1.47;;;;;;;1.77;77.94;101664.44;5034088;28;20447;-70
2024/02/28 09:28:15;;;;;;;3.00;1.73;;;;;;;1.77;77.52;101660.13;5033882;28;20443;-70
2024/02/28 09:30:42;;;;;;;2.10;1.50;;;;;;;1.79;77.66;101655.00;5034031;28;20445;-70
2024/02/28 09:33:11;;;;;;;2.10;1.73;;;;;;;1.80;77.92;101656.78;5033957;28;20933;-71
2024/02/28 09:35:38;;;;;;;1.77;1.67;;;;;;;1.81;77.64;101651.63;5033729;28;20859;-70
2024/02/28 09:38:05;;;;;;;1.77;1.47;;;;;;;1.80;77.49;101649.91;5033624;28;21009;-70
2024/02/28 09:40:32;;;;;;;1.93;1.50;;;;;;;1.83;77.78;101656.84;5034015;28;20439;-70
2024/02/28 09:43:03;;;;;;;2.43;1.50;;;;;;;1.84;77.92;101659.47;5033674;28;20474;-70
2024/02/28 09:45:32;;;;;;;2.20;1.77;;;;;;;1.86;77.51;101659.50;5033578;28;20441;-70
2024/02/28 09:48:00;;;;;;;2.03;1.43;;;;;;;1.87;77.41;101656.97;5033639;28;20440;-70
2024/02/28 09:50:28;;;;;;;1.60;1.47;;;;;;;1.87;77.48;101646.63;5033607;28;20527;-70
2024/02/28 09:52:56;;;;;;;2.10;1.73;;;;;;;1.90;77.52;101646.75;5033639;28;20451;-71
2024/02/28 09:55:22;;;;;;;1.43;1.33;;;;;;;1.92;77.45;101645.06;5033324;28;20468;-70
2024/02/28 09:57:51;;;;;;;1.47;1.37;;;;;;;1.93;77.39;101645.94;5033553;28;20485;-71
2024/02/28 10:00:21;;;;;;;2.90;1.70;;;;;;;1.95;77.05;101649.44;5033389;28;20437;-69
2024/02/28 10:02:49;;;;;;;1.80;1.47;;;;;;;1.96;76.99;101655.47;5033250;28;20436;-70
2024/02/28 10:05:18;;;;;;;1.60;1.50;;;;;;;1.96;77.28;101652.88;5033338;28;20785;-70
2024/02/28 10:07:47;;;;;;;1.70;1.30;;;;;;;1.97;77.07;101655.53;5033090;28;20448;-70
2024/02/28 10:10:14;;;;;;;2.40;1.90;;;;;;;1.97;77.12;101652.94;5033246;28;20683;-70
2024/02/28 10:12:44;;;;;;;2.10;1.90;;;;;;;1.99;77.11;101650.38;5032730;28;20443;-70
2024/02/28 10:15:12;;;;;;;1.70;1.47;;;;;;;1.99;77.12;101637.47;5033087;28;20524;-70
2024/02/28 10:17:39;;;;;;;4.70;1.93;;;;;;;1.97;77.15;101639.16;5032997;28;20497;-71
2024/02/28 10:20:06;;;;;;;2.67;2.10;;;;;;;2.01;77.08;101641.84;5033076;28;20942;-70
2024/02/28 10:22:36;;;;;;;3.40;2.13;;;;;;;2.02;77.19;101642.75;5032857;28;20437;-70
2024/02/28 10:25:05;;;;;;;3.83;1.83;;;;;;;2.02;76.94;101641.03;5033090;28;20433;-70
2024/02/28 10:27:36;;;;;;;4.13;1.70;;;;;;;2.03;77.04;101637.59;5032960;28;20478;-71
2024/02/28 10:30:04;;;;;;;3.13;1.93;;;;;;;2.04;77.03;101639.34;5032976;28;20438;-70
2024/02/28 10:32:31;;;;;;;2.37;1.90;;;;;;;2.06;77.09;101639.41;5032803;28;20535;-70
2024/02/28 10:34:59;;;;;;;2.20;2.00;;;;;;;2.07;76.93;101635.97;5032745;28;20470;-71
2024/02/28 10:37:30;;;;;;;1.97;1.77;;;;;;;2.08;77.19;101630.00;5032769;28;20485;-70
2024/02/28 10:39:58;;;;;;;3.37;2.40;;;;;;;2.10;76.91;101630.88;5032743;28;20474;-70
2024/02/28 10:42:28;;;;;;;2.40;2.20;;;;;;;2.11;77.12;101627.50;5032658;28;20806;-71
2024/02/28 10:44:56;;;;;;;2.87;1.93;;;;;;;2.13;76.96;101634.44;5032675;28;20458;-70
2024/02/28 10:47:24;;;;;;;2.60;2.40;;;;;;;2.14;77.10;101630.16;5032652;28;20447;-70
2024/02/28 10:49:52;;;;;;;4.03;2.40;;;;;;;2.15;76.93;101631.88;5032503;28;20446;-71
2024/02/28 10:52:22;;;;;;;3.80;2.80;;;;;;;2.18;76.71;101631.09;5032708;28;20474;-69
2024/02/28 10:54:55;;;;;;;3.00;2.20;;;;;;;2.18;76.63;101637.13;5032609;28;20466;-68
2024/02/28 10:57:25;;;;;;;3.83;2.40;;;;;;;2.21;76.50;101636.34;5032557;28;21022;-68
2024/02/28 10:59:55;;;;;;;2.43;1.70;;;;;;;2.22;76.79;101628.63;5032560;28;20443;-68
2024/02/28 11:02:23;;;;;;;3.13;2.07;;;;;;;2.23;76.69;101635.53;5032532;28;20445;-68
2024/02/28 11:04:52;;;;;;;2.40;2.07;;;;;;;2.24;76.77;101626.94;5032738;28;20443;-69
2024/02/28 11:07:21;;;;;;;3.23;2.47;;;;;;;2.22;76.68;101623.47;5032579;28;20432;-68
2024/02/28 11:09:48;;;;;;;3.20;2.37;;;;;;;2.25;76.77;101618.38;5032480;28;20497;-68
2024/02/28 11:12:27;;;;;;;3.50;2.20;;;;;;;2.27;76.81;101623.56;5032432;28;20502;-68
2024/02/28 11:15:00;;;;;;;2.83;2.33;;;;;;;2.27;76.80;101614.16;5032416;28;20450;-68
2024/02/28 11:17:28;;;;;;;3.50;2.40;;;;;;;2.28;76.44;101615.00;5032197;28;20483;-69
2024/02/28 11:19:56;;;;;;;2.97;2.20;;;;;;;2.28;76.43;101605.56;5032459;28;20445;-69
2024/02/28 11:22:23;;;;;;;2.73;2.53;;;;;;;2.30;76.47;101605.56;5032404;28;20442;-68
2024/02/28 11:24:50;;;;;;;3.27;2.43;;;;;;;2.32;76.43;101603.91;5035414;28;20441;-68
2024/02/28 11:27:17;;;;;;;3.80;2.03;;;;;;;2.32;76.10;101603.91;5036267;28;20448;-69
2024/02/28 11:29:46;;;;;;;2.37;1.97;;;;;;;2.32;76.14;101599.63;5036232;28;20444;-68
2024/02/28 11:32:15;;;;;;;3.13;2.17;;;;;;;2.33;76.27;101601.38;5036001;28;20447;-68
2024/02/28 11:34:43;;;;;;;2.33;2.10;;;;;;;2.34;75.95;101603.13;5036113;28;21062;-68